sensor_id;sensor_type;location;lat;lon;timestamp;pressure;altitude;pressure_sealevel;temperature;humidity
24788;BME280;12883;52.662;5.196;2023-12-20T00:00:47;100409.59;;;7.71;100.00
24788;BME280;12883;52.662;5.196;2023-12-20T00:03:12;100415.91;;;7.70;100.00
24788;BME280;12883;52.662;5.196;2023-12-20T00:05:37;100413.25;;;7.70;100.00
24788;BME280;12883;52.662;5.196;2023-12-20T00:08:06;100418.72;;;7.69;100.00
24788;BME280;12883;52.662;5.196;2023-12-20T00:10:31;100426.59;;;7.62;100.00
24788;BME280;12883;52.662;5.196;2023-12-20T00:12:56;100418.03;;;7.60;100.00
24788;BME280;12883;52.662;5.196;2023-12-20T00:15:22;100409.47;;;7.58;100.00
24788;BME280;12883;52.662;5.196;2023-12-20T00:17:47;100408.47;;;7.59;100.00
24788;BME280;12883;52.662;5.196;2023-12-20T00:20:12;100403.84;;;7.61;100.00
24788;BME280;12883;52.662;5.196;2023-12-20T00:22:38;100403.63;;;7.63;100.00
24788;BME280;12883;52.662;5.196;2023-12-20T00:25:03;100404.50;;;7.70;100.00
24788;BME280;12883;52.662;5.196;2023-12-20T00:27:29;100395.22;;;7.53;100.00
24788;BME280;12883;52.662;5.196;2023-12-20T00:29:54;100401.69;;;7.71;100.00
24788;BME280;12883;52.662;5.196;2023-12-20T00:32:20;100410.78;;;7.69;100.00
24788;BME280;12883;52.662;5.196;2023-12-20T00:34:45;100407.97;;;7.70;100.00
24788;BME280;12883;52.662;5.196;2023-12-20T00:37:10;100402.69;;;7.70;100.00
24788;BME280;12883;52.662;5.196;2023-12-20T00:39:36;100397.66;;;7.75;100.00
24788;BME280;12883;52.662;5.196;2023-12-20T00:42:01;100399.91;;;7.78;100.00
24788;BME280;12883;52.662;5.196;2023-12-20T00:44:26;100399.91;;;7.78;100.00
24788;BME280;12883;52.662;5.196;2023-12-20T00:46:52;100409.47;;;7.79;100.00
24788;BME280;12883;52.662;5.196;2023-12-20T00:49:17;100423.50;;;7.80;100.00
24788;BME280;12883;52.662;5.196;2023-12-20T00:51:42;100437.31;;;7.82;100.00
24788;BME280;12883;52.662;5.196;2023-12-20T00:54:08;100421.22;;;7.77;100.00
24788;BME280;12883;52.662;5.196;2023-12-20T00:56:34;100447.53;;;7.85;100.00
24788;BME280;12883;52.662;5.196;2023-12-20T00:58:59;100429.97;;;7.77;100.00
24788;BME280;12883;52.662;5.196;2023-12-20T01:01:25;100455.31;;;7.93;100.00
24788;BME280;12883;52.662;5.196;2023-12-20T01:03:50;100454.88;;;7.89;100.00
24788;BME280;12883;52.662;5.196;2023-12-20T01:06:16;100449.59;;;7.89;100.00
24788;BME280;12883;52.662;5.196;2023-12-20T01:08:41;100444.22;;;7.83;100.00
24788;BME280;12883;52.662;5.196;2023-12-20T01:11:07;100458.75;;;7.93;100.00
24788;BME280;12883;52.662;5.196;2023-12-20T01:13:32;100467.69;;;7.92;100.00
24788;BME280;12883;52.662;5.196;2023-12-20T01:15:58;100457.13;;;7.92;100.00
24788;BME280;12883;52.662;5.196;2023-12-20T01:18:23;100447.16;;;7.94;100.00
24788;BME280;12883;52.662;5.196;2023-12-20T01:20:48;100450.88;;;8.00;100.00
24788;BME280;12883;52.662;5.196;2023-12-20T01:23:14;100452.34;;;8.02;100.00
24788;BME280;12883;52.662;5.196;2023-12-20T01:25:39;100447.09;;;8.09;100.00
24788;BME280;12883;52.662;5.196;2023-12-20T01:28:04;100448.13;;;8.14;100.00
24788;BME280;12883;52.662;5.196;2023-12-20T01:30:30;100451.78;;;8.13;100.00
24788;BME280;12883;52.662;5.196;2023-12-20T01:32:55;100437.56;;;8.14;100.00
24788;BME280;12883;52.662;5.196;2023-12-20T01:35:20;100441.47;;;8.18;100.00
24788;BME280;12883;52.662;5.196;2023-12-20T01:37:46;100439.09;;;8.23;100.00
24788;BME280;12883;52.662;5.196;2023-12-20T01:40:11;100441.75;;;8.23;100.00
24788;BME280;12883;52.662;5.196;2023-12-20T01:42:36;100447.84;;;8.24;100.00
24788;BME280;12883;52.662;5.196;2023-12-20T01:45:02;100445.25;;;8.30;100.00
24788;BME280;12883;52.662;5.196;2023-12-20T01:47:28;100443.41;;;8.31;100.00
24788;BME280;12883;52.662;5.196;2023-12-20T01:49:53;100430.16;;;8.24;100.00
24788;BME280;12883;52.662;5.196;2023-12-20T01:52:19;100444.84;;;8.33;100.00
24788;BME280;12883;52.662;5.196;2023-12-20T01:54:45;100460.72;;;8.33;100.00
24788;BME280;12883;52.662;5.196;2023-12-20T01:57:12;100465.81;;;8.35;100.00
24788;BME280;12883;52.662;5.196;2023-12-20T01:59:39;100468.88;;;8.38;100.00
24788;BME280;12883;52.662;5.196;2023-12-20T02:02:05;100470.88;;;8.36;100.00
24788;BME280;12883;52.662;5.196;2023-12-20T02:04:30;100477.63;;;8.39;100.00
24788;BME280;12883;52.662;5.196;2023-12-20T02:06:57;100418.97;;;8.01;100.00
24788;BME280;12883;52.662;5.196;2023-12-20T02:09:24;100487.41;;;8.38;100.00
24788;BME280;12883;52.662;5.196;2023-12-20T02:11:49;100499.59;;;8.39;100.00
24788;BME280;12883;52.662;5.196;2023-12-20T02:14:14;100484.97;;;8.43;100.00
24788;BME280;12883;52.662;5.196;2023-12-20T02:16:40;100489.88;;;8.46;100.00
24788;BME280;12883;52.662;5.196;2023-12-20T02:19:13;100495.00;;;8.48;100.00
24788;BME280;12883;52.662;5.196;2023-12-20T02:21:38;100503.34;;;8.51;100.00
24788;BME280;12883;52.662;5.196;2023-12-20T02:24:04;100522.06;;;8.56;100.00
24788;BME280;12883;52.662;5.196;2023-12-20T02:26:29;100535.69;;;8.53;100.00
24788;BME280;12883;52.662;5.196;2023-12-20T02:28:54;100506.84;;;8.31;100.00
24788;BME280;12883;52.662;5.196;2023-12-20T02:31:21;100557.03;;;8.52;100.00
24788;BME280;12883;52.662;5.196;2023-12-20T02:33:47;100554.03;;;8.55;100.00
24788;BME280;12883;52.662;5.196;2023-12-20T02:36:12;100567.25;;;8.55;100.00
24788;BME280;12883;52.662;5.196;2023-12-20T02:38:38;100578.00;;;8.53;100.00
24788;BME280;12883;52.662;5.196;2023-12-20T02:41:03;100576.38;;;8.52;100.00
24788;BME280;12883;52.662;5.196;2023-12-20T02:43:28;100574.75;;;8.51;100.00
24788;BME280;12883;52.662;5.196;2023-12-20T02:45:54;100579.03;;;8.52;100.00
24788;BME280;12883;52.662;5.196;2023-12-20T02:48:19;100569.81;;;8.48;100.00
24788;BME280;12883;52.662;5.196;2023-12-20T02:50:46;100537.13;;;8.28;100.00
24788;BME280;12883;52.662;5.196;2023-12-20T02:53:13;100574.94;;;8.50;100.00
24788;BME280;12883;52.662;5.196;2023-12-20T02:55:38;100571.09;;;8.52;100.00
24788;BME280;12883;52.662;5.196;2023-12-20T02:58:03;100567.00;;;8.50;100.00
24788;BME280;12883;52.662;5.196;2023-12-20T03:00:28;100571.66;;;8.48;100.00
24788;BME280;12883;52.662;5.196;2023-12-20T03:02:54;100577.31;;;8.45;100.00
24788;BME280;12883;52.662;5.196;2023-12-20T03:05:19;100574.25;;;8.41;100.00
24788;BME280;12883;52.662;5.196;2023-12-20T03:07:45;100537.94;;;8.29;100.00
24788;BME280;12883;52.662;5.196;2023-12-20T03:10:11;100557.75;;;8.39;100.00
24788;BME280;12883;52.662;5.196;2023-12-20T03:12:36;100561.41;;;8.38;100.00
24788;BME280;12883;52.662;5.196;2023-12-20T03:15:02;100557.31;;;8.36;100.00
24788;BME280;12883;52.662;5.196;2023-12-20T03:17:27;100553.22;;;8.33;100.00
24788;BME280;12883;52.662;5.196;2023-12-20T03:19:52;100504.59;;;8.07;100.00
24788;BME280;12883;52.662;5.196;2023-12-20T03:22:18;100542.78;;;8.25;100.00
24788;BME280;12883;52.662;5.196;2023-12-20T03:24:43;100547.31;;;8.31;100.00
24788;BME280;12883;52.662;5.196;2023-12-20T03:27:08;100551.19;;;8.35;100.00
24788;BME280;12883;52.662;5.196;2023-12-20T03:29:34;100560.41;;;8.39;100.00
24788;BME280;12883;52.662;5.196;2023-12-20T03:31:59;100547.00;;;8.41;100.00
24788;BME280;12883;52.662;5.196;2023-12-20T03:34:24;100553.69;;;8.43;100.00
24788;BME280;12883;52.662;5.196;2023-12-20T03:36:50;100564.28;;;8.43;100.00
24788;BME280;12883;52.662;5.196;2023-12-20T03:39:15;100566.31;;;8.41;100.00
24788;BME280;12883;52.662;5.196;2023-12-20T03:41:40;100550.88;;;8.45;100.00
24788;BME280;12883;52.662;5.196;2023-12-20T03:44:06;100547.88;;;8.48;100.00
24788;BME280;12883;52.662;5.196;2023-12-20T03:46:31;100549.28;;;8.50;100.00
24788;BME280;12883;52.662;5.196;2023-12-20T03:48:56;100537.91;;;8.50;100.00
24788;BME280;12883;52.662;5.196;2023-12-20T03:51:22;100531.41;;;8.52;100.00
24788;BME280;12883;52.662;5.196;2023-12-20T03:53:47;100519.66;;;8.55;100.00
24788;BME280;12883;52.662;5.196;2023-12-20T03:56:13;100505.34;;;8.49;100.00
24788;BME280;12883;52.662;5.196;2023-12-20T03:58:38;100510.69;;;8.56;100.00
24788;BME280;12883;52.662;5.196;2023-12-20T04:01:09;100511.31;;;8.58;100.00
24788;BME280;12883;52.662;5.196;2023-12-20T04:03:35;100526.59;;;8.62;100.00
24788;BME280;12883;52.662;5.196;2023-12-20T04:06:00;100528.22;;;8.63;100.00
24788;BME280;12883;52.662;5.196;2023-12-20T04:08:25;100526.00;;;8.67;100.00
24788;BME280;12883;52.662;5.196;2023-12-20T04:10:51;100524.59;;;8.64;100.00
24788;BME280;12883;52.662;5.196;2023-12-20T04:13:16;100522.56;;;8.66;100.00
24788;BME280;12883;52.662;5.196;2023-12-20T04:15:41;100525.22;;;8.66;100.00
24788;BME280;12883;52.662;5.196;2023-12-20T04:18:07;100534.97;;;8.66;100.00
24788;BME280;12883;52.662;5.196;2023-12-20T04:20:32;100551.91;;;8.71;100.00
24788;BME280;12883;52.662;5.196;2023-12-20T04:22:57;100570.19;;;8.73;100.00
24788;BME280;12883;52.662;5.196;2023-12-20T04:25:23;100576.56;;;8.78;100.00
24788;BME280;12883;52.662;5.196;2023-12-20T04:27:48;100582.84;;;8.77;100.00
24788;BME280;12883;52.662;5.196;2023-12-20T04:30:13;100589.81;;;8.78;100.00
24788;BME280;12883;52.662;5.196;2023-12-20T04:32:39;100591.00;;;8.76;100.00
24788;BME280;12883;52.662;5.196;2023-12-20T04:35:04;100584.50;;;8.78;100.00
24788;BME280;12883;52.662;5.196;2023-12-20T04:37:30;100595.53;;;8.82;100.00
24788;BME280;12883;52.662;5.196;2023-12-20T04:39:55;100577.56;;;8.77;100.00
24788;BME280;12883;52.662;5.196;2023-12-20T04:42:20;100588.97;;;8.78;100.00
24788;BME280;12883;52.662;5.196;2023-12-20T04:44:45;100588.97;;;8.78;100.00
24788;BME280;12883;52.662;5.196;2023-12-20T04:47:11;100581.22;;;8.76;100.00
24788;BME280;12883;52.662;5.196;2023-12-20T04:49:36;100567.38;;;8.74;100.00
24788;BME280;12883;52.662;5.196;2023-12-20T04:52:01;100560.88;;;8.77;100.00
24788;BME280;12883;52.662;5.196;2023-12-20T04:54:27;100557.22;;;8.78;100.00
24788;BME280;12883;52.662;5.196;2023-12-20T04:56:52;100571.91;;;8.80;100.00
24788;BME280;12883;52.662;5.196;2023-12-20T04:59:18;100578.81;;;8.81;100.00
24788;BME280;12883;52.662;5.196;2023-12-20T05:01:43;100698.47;;;8.83;100.00
24788;BME280;12883;52.662;5.196;2023-12-20T05:04:09;100598.59;;;8.85;100.00
24788;BME280;12883;52.662;5.196;2023-12-20T05:06:34;100594.72;;;8.88;100.00
24788;BME280;12883;52.662;5.196;2023-12-20T05:08:59;100595.56;;;8.88;100.00
24788;BME280;12883;52.662;5.196;2023-12-20T05:11:25;100588.44;;;8.89;100.00
24788;BME280;12883;52.662;5.196;2023-12-20T05:13:50;100602.88;;;8.86;100.00
24788;BME280;12883;52.662;5.196;2023-12-20T05:16:15;100600.00;;;8.88;100.00
24788;BME280;12883;52.662;5.196;2023-12-20T05:18:43;100597.19;;;8.89;100.00
24788;BME280;12883;52.662;5.196;2023-12-20T05:21:08;100588.44;;;8.89;100.00
24788;BME280;12883;52.662;5.196;2023-12-20T05:23:34;100592.50;;;8.91;100.00
24788;BME280;12883;52.662;5.196;2023-12-20T05:26:00;100584.13;;;8.88;100.00
24788;BME280;12883;52.662;5.196;2023-12-20T05:28:25;100579.44;;;8.83;100.00
24788;BME280;12883;52.662;5.196;2023-12-20T05:30:51;100567.66;;;8.86;100.00
24788;BME280;12883;52.662;5.196;2023-12-20T05:33:16;100567.84;;;8.84;100.00
24788;BME280;12883;52.662;5.196;2023-12-20T05:35:41;100569.09;;;8.88;100.00
24788;BME280;12883;52.662;5.196;2023-12-20T05:38:07;100564.81;;;8.87;100.00
24788;BME280;12883;52.662;5.196;2023-12-20T05:40:32;100562.41;;;8.92;100.00
24788;BME280;12883;52.662;5.196;2023-12-20T05:42:57;100559.13;;;8.90;100.00
24788;BME280;12883;52.662;5.196;2023-12-20T05:45:23;100544.09;;;8.91;100.00
24788;BME280;12883;52.662;5.196;2023-12-20T05:47:48;100552.44;;;8.94;100.00
24788;BME280;12883;52.662;5.196;2023-12-20T05:50:13;100540.44;;;8.98;100.00
24788;BME280;12883;52.662;5.196;2023-12-20T05:52:39;100530.69;;;8.99;100.00
24788;BME280;12883;52.662;5.196;2023-12-20T05:55:04;100537.19;;;8.96;100.00
24788;BME280;12883;52.662;5.196;2023-12-20T05:57:30;100519.84;;;8.87;100.00
24788;BME280;12883;52.662;5.196;2023-12-20T05:59:55;100534.19;;;9.06;100.00
24788;BME280;12883;52.662;5.196;2023-12-20T06:02:20;100541.09;;;9.07;100.00
24788;BME280;12883;52.662;5.196;2023-12-20T06:04:46;100539.28;;;9.07;100.00
24788;BME280;12883;52.662;5.196;2023-12-20T06:07:12;100536.06;;;9.12;100.00
24788;BME280;12883;52.662;5.196;2023-12-20T06:09:38;100539.91;;;9.16;100.00
24788;BME280;12883;52.662;5.196;2023-12-20T06:12:03;100538.50;;;9.13;100.00
24788;BME280;12883;52.662;5.196;2023-12-20T06:14:29;100534.84;;;9.14;100.00
24788;BME280;12883;52.662;5.196;2023-12-20T06:16:56;100484.44;;;8.88;100.00
24788;BME280;12883;52.662;5.196;2023-12-20T06:19:21;100538.94;;;9.17;100.00
24788;BME280;12883;52.662;5.196;2023-12-20T06:21:46;100550.31;;;9.17;100.00
24788;BME280;12883;52.662;5.196;2023-12-20T06:24:12;100552.97;;;9.17;100.00
24788;BME280;12883;52.662;5.196;2023-12-20T06:26:37;100571.69;;;9.16;100.00
24788;BME280;12883;52.662;5.196;2023-12-20T06:29:03;100573.88;;;9.06;100.00
24788;BME280;12883;52.662;5.196;2023-12-20T06:31:28;100586.59;;;9.17;100.00
24788;BME280;12883;52.662;5.196;2023-12-20T06:33:54;100586.59;;;9.17;100.00
24788;BME280;12883;52.662;5.196;2023-12-20T06:36:23;100598.22;;;9.22;100.00
24788;BME280;12883;52.662;5.196;2023-12-20T06:38:48;100592.31;;;9.27;100.00
24788;BME280;12883;52.662;5.196;2023-12-20T06:41:13;100589.50;;;9.28;100.00
24788;BME280;12883;52.662;5.196;2023-12-20T06:43:39;100599.84;;;9.30;100.00
24788;BME280;12883;52.662;5.196;2023-12-20T06:46:06;100596.00;;;9.32;100.00
24788;BME280;12883;52.662;5.196;2023-12-20T06:48:31;100600.28;;;9.33;100.00
24788;BME280;12883;52.662;5.196;2023-12-20T06:50:59;100595.59;;;9.29;100.00
24788;BME280;12883;52.662;5.196;2023-12-20T06:53:24;100596.41;;;9.29;100.00
24788;BME280;12883;52.662;5.196;2023-12-20T06:55:50;100575.00;;;9.24;100.00
24788;BME280;12883;52.662;5.196;2023-12-20T06:58:15;100594.13;;;9.26;100.00
24788;BME280;12883;52.662;5.196;2023-12-20T07:00:41;100592.50;;;9.25;100.00
24788;BME280;12883;52.662;5.196;2023-12-20T07:03:07;100586.59;;;9.23;100.00
24788;BME280;12883;52.662;5.196;2023-12-20T07:05:32;100577.34;;;9.06;100.00
24788;BME280;12883;52.662;5.196;2023-12-20T07:07:58;100581.91;;;9.25;100.00
24788;BME280;12883;52.662;5.196;2023-12-20T07:10:23;100581.13;;;9.25;100.00
24788;BME280;12883;52.662;5.196;2023-12-20T07:12:49;100594.34;;;9.25;100.00
24788;BME280;12883;52.662;5.196;2023-12-20T07:15:14;100571.75;;;9.22;100.00
24788;BME280;12883;52.662;5.196;2023-12-20T07:17:40;100572.16;;;9.26;100.00
24788;BME280;12883;52.662;5.196;2023-12-20T07:20:05;100560.53;;;9.20;100.00
24788;BME280;12883;52.662;5.196;2023-12-20T07:22:34;100559.34;;;9.29;100.00
24788;BME280;12883;52.662;5.196;2023-12-20T07:25:07;100521.31;;;8.96;100.00
24788;BME280;12883;52.662;5.196;2023-12-20T07:27:32;100530.56;;;9.13;100.00
24788;BME280;12883;52.662;5.196;2023-12-20T07:29:58;100562.22;;;9.34;100.00
24788;BME280;12883;52.662;5.196;2023-12-20T07:32:23;100573.25;;;9.38;100.00
24788;BME280;12883;52.662;5.196;2023-12-20T07:34:49;100587.09;;;9.40;100.00
24788;BME280;12883;52.662;5.196;2023-12-20T07:37:14;100597.69;;;9.40;100.00
24788;BME280;12883;52.662;5.196;2023-12-20T07:39:40;100595.66;;;9.42;100.00
24788;BME280;12883;52.662;5.196;2023-12-20T07:42:09;100618.28;;;9.44;100.00
24788;BME280;12883;52.662;5.196;2023-12-20T07:44:34;100607.69;;;9.44;100.00
24788;BME280;12883;52.662;5.196;2023-12-20T07:47:01;100611.97;;;9.45;100.00
24788;BME280;12883;52.662;5.196;2023-12-20T07:49:27;100615.25;;;9.47;100.00
24788;BME280;12883;52.662;5.196;2023-12-20T07:51:52;100606.28;;;9.48;100.00
24788;BME280;12883;52.662;5.196;2023-12-20T07:54:17;100612.19;;;9.50;100.00
24788;BME280;12883;52.662;5.196;2023-12-20T07:56:43;100602.63;;;9.49;100.00
24788;BME280;12883;52.662;5.196;2023-12-20T07:59:08;100623.41;;;9.52;100.00
24788;BME280;12883;52.662;5.196;2023-12-20T08:01:34;100617.31;;;9.52;100.00
24788;BME280;12883;52.662;5.196;2023-12-20T08:03:59;100626.47;;;9.49;100.00
24788;BME280;12883;52.662;5.196;2023-12-20T08:06:24;100575.78;;;9.18;100.00
24788;BME280;12883;52.662;5.196;2023-12-20T08:08:50;100638.69;;;9.50;100.00
24788;BME280;12883;52.662;5.196;2023-12-20T08:11:15;100621.19;;;9.55;100.00
24788;BME280;12883;52.662;5.196;2023-12-20T08:13:41;100627.91;;;9.58;100.00
24788;BME280;12883;52.662;5.196;2023-12-20T08:16:06;100637.72;;;9.57;100.00
24788;BME280;12883;52.662;5.196;2023-12-20T08:18:31;100640.13;;;9.52;100.00
24788;BME280;12883;52.662;5.196;2023-12-20T08:20:57;100634.22;;;9.57;100.00
24788;BME280;12883;52.662;5.196;2023-12-20T08:23:22;100630.34;;;9.53;100.00
24788;BME280;12883;52.662;5.196;2023-12-20T08:25:47;100613.63;;;9.52;100.00
24788;BME280;12883;52.662;5.196;2023-12-20T08:28:13;100607.31;;;9.53;100.00
24788;BME280;12883;52.662;5.196;2023-12-20T08:30:39;100602.84;;;9.54;100.00
24788;BME280;12883;52.662;5.196;2023-12-20T08:33:05;100610.81;;;9.54;100.00
24788;BME280;12883;52.662;5.196;2023-12-20T08:35:33;100604.47;;;9.55;100.00
24788;BME280;12883;52.662;5.196;2023-12-20T08:37:58;100622.38;;;9.53;100.00
24788;BME280;12883;52.662;5.196;2023-12-20T08:40:23;100620.56;;;9.53;100.00
24788;BME280;12883;52.662;5.196;2023-12-20T08:42:48;100607.75;;;9.57;100.00
24788;BME280;12883;52.662;5.196;2023-12-20T08:45:14;100568.09;;;9.30;100.00
24788;BME280;12883;52.662;5.196;2023-12-20T08:47:39;100617.13;;;9.59;100.00
24788;BME280;12883;52.662;5.196;2023-12-20T08:50:06;100613.88;;;9.64;100.00
24788;BME280;12883;52.662;5.196;2023-12-20T08:52:32;100602.47;;;9.63;100.00
24788;BME280;12883;52.662;5.196;2023-12-20T08:54:57;100614.72;;;9.64;100.00
24788;BME280;12883;52.662;5.196;2023-12-20T08:57:22;100608.19;;;9.67;100.00
24788;BME280;12883;52.662;5.196;2023-12-20T08:59:51;100617.38;;;9.71;100.00
24788;BME280;12883;52.662;5.196;2023-12-20T09:02:16;100620.44;;;9.68;100.00
24788;BME280;12883;52.662;5.196;2023-12-20T09:04:42;100590.03;;;9.64;100.00
24788;BME280;12883;52.662;5.196;2023-12-20T09:07:24;100614.75;;;9.77;100.00
24788;BME280;12883;52.662;5.196;2023-12-20T09:09:50;100597.63;;;9.80;100.00
24788;BME280;12883;52.662;5.196;2023-12-20T09:12:20;100619.66;;;9.80;100.00
24788;BME280;12883;52.662;5.196;2023-12-20T09:14:49;100620.47;;;9.81;100.00
24788;BME280;12883;52.662;5.196;2023-12-20T09:17:16;100655.91;;;9.80;100.00
24788;BME280;12883;52.662;5.196;2023-12-20T09:19:42;100638.03;;;9.82;100.00
24788;BME280;12883;52.662;5.196;2023-12-20T09:22:09;100641.88;;;9.86;100.00
24788;BME280;12883;52.662;5.196;2023-12-20T09:24:34;100669.03;;;9.94;100.00
24788;BME280;12883;52.662;5.196;2023-12-20T09:27:00;100649.88;;;9.99;100.00
24788;BME280;12883;52.662;5.196;2023-12-20T09:29:25;100664.19;;;10.04;100.00
24788;BME280;12883;52.662;5.196;2023-12-20T09:31:50;100652.97;;;10.02;100.00
24788;BME280;12883;52.662;5.196;2023-12-20T09:34:16;100699.31;;;10.13;100.00
24788;BME280;12883;52.662;5.196;2023-12-20T09:36:42;100721.78;;;10.17;100.00
24788;BME280;12883;52.662;5.196;2023-12-20T09:39:15;100883.28;;;10.18;100.00
24788;BME280;12883;52.662;5.196;2023-12-20T09:41:45;100874.63;;;10.03;100.00
24788;BME280;12883;52.662;5.196;2023-12-20T09:44:15;100893.88;;;10.12;100.00
24788;BME280;12883;52.662;5.196;2023-12-20T09:46:44;100893.03;;;10.11;100.00
24788;BME280;12883;52.662;5.196;2023-12-20T09:49:10;100920.38;;;10.12;100.00
24788;BME280;12883;52.662;5.196;2023-12-20T09:51:36;100924.44;;;10.08;100.00
24788;BME280;12883;52.662;5.196;2023-12-20T09:54:03;100924.72;;;9.98;100.00
24788;BME280;12883;52.662;5.196;2023-12-20T09:56:29;100945.28;;;10.11;100.00
24788;BME280;12883;52.662;5.196;2023-12-20T09:58:55;100887.63;;;9.71;100.00
24788;BME280;12883;52.662;5.196;2023-12-20T10:01:21;100955.66;;;10.12;100.00
24788;BME280;12883;52.662;5.196;2023-12-20T10:03:46;100939.97;;;10.11;100.00
24788;BME280;12883;52.662;5.196;2023-12-20T10:06:12;100941.78;;;10.10;100.00
24788;BME280;12883;52.662;5.196;2023-12-20T10:08:38;100943.19;;;10.06;100.00
24788;BME280;12883;52.662;5.196;2023-12-20T10:11:04;100864.94;;;9.62;100.00
24788;BME280;12883;52.662;5.196;2023-12-20T10:13:30;100918.03;;;10.02;100.00
24788;BME280;12883;52.662;5.196;2023-12-20T10:15:56;100908.69;;;9.79;100.00
24788;BME280;12883;52.662;5.196;2023-12-20T10:18:22;100908.38;;;9.95;100.00
24788;BME280;12883;52.662;5.196;2023-12-20T10:20:48;100917.88;;;10.04;100.00
24788;BME280;12883;52.662;5.196;2023-12-20T10:23:15;100917.69;;;10.05;100.00
24788;BME280;12883;52.662;5.196;2023-12-20T10:25:41;100909.72;;;10.05;100.00
24788;BME280;12883;52.662;5.196;2023-12-20T10:28:10;100912.59;;;10.04;100.00
24788;BME280;12883;52.662;5.196;2023-12-20T10:30:36;100902.59;;;10.06;100.00
24788;BME280;12883;52.662;5.196;2023-12-20T10:33:02;100900.38;;;10.09;100.00
24788;BME280;12883;52.662;5.196;2023-12-20T10:35:27;100897.72;;;10.09;100.00
24788;BME280;12883;52.662;5.196;2023-12-20T10:37:55;100893.88;;;10.12;100.00
24788;BME280;12883;52.662;5.196;2023-12-20T10:40:22;100924.66;;;10.13;100.00
24788;BME280;12883;52.662;5.196;2023-12-20T10:42:48;100892.66;;;10.14;100.00
24788;BME280;12883;52.662;5.196;2023-12-20T10:45:15;100890.81;;;10.15;100.00
24788;BME280;12883;52.662;5.196;2023-12-20T10:47:44;100866.81;;;9.95;100.00
24788;BME280;12883;52.662;5.196;2023-12-20T10:50:11;100891.25;;;10.18;100.00
24788;BME280;12883;52.662;5.196;2023-12-20T10:52:37;100882.50;;;10.18;100.00
24788;BME280;12883;52.662;5.196;2023-12-20T10:55:03;100826.78;;;9.84;100.00
24788;BME280;12883;52.662;5.196;2023-12-20T10:57:29;100875.13;;;10.13;100.00
24788;BME280;12883;52.662;5.196;2023-12-20T10:59:56;100871.84;;;10.11;100.00
24788;BME280;12883;52.662;5.196;2023-12-20T11:02:26;100875.56;;;10.17;100.00
24788;BME280;12883;52.662;5.196;2023-12-20T11:04:59;100874.31;;;10.19;100.00
24788;BME280;12883;52.662;5.196;2023-12-20T11:07:35;100861.53;;;10.23;100.00
24788;BME280;12883;52.662;5.196;2023-12-20T11:10:19;100859.31;;;10.26;100.00
24788;BME280;12883;52.662;5.196;2023-12-20T11:12:56;100852.56;;;10.30;100.00
24788;BME280;12883;52.662;5.196;2023-12-20T11:15:22;100852.75;;;10.29;100.00
24788;BME280;12883;52.662;5.196;2023-12-20T11:17:56;100865.22;;;10.28;100.00
24788;BME280;12883;52.662;5.196;2023-12-20T11:20:36;100847.81;;;10.19;100.00
24788;BME280;12883;52.662;5.196;2023-12-20T11:23:02;100874.63;;;10.31;100.00
24788;BME280;12883;52.662;5.196;2023-12-20T11:25:27;100882.34;;;10.32;100.00
24788;BME280;12883;52.662;5.196;2023-12-20T11:28:10;100887.66;;;10.32;100.00
24788;BME280;12883;52.662;5.196;2023-12-20T11:30:58;100880.53;;;10.33;100.00
24788;BME280;12883;52.662;5.196;2023-12-20T11:33:30;100897.47;;;10.32;100.00
24788;BME280;12883;52.662;5.196;2023-12-20T11:35:56;100902.97;;;10.30;100.00
24788;BME280;12883;52.662;5.196;2023-12-20T11:38:23;100900.56;;;10.35;100.00
24788;BME280;12883;52.662;5.196;2023-12-20T11:40:49;100898.09;;;10.34;100.00
24788;BME280;12883;52.662;5.196;2023-12-20T11:43:38;100885.41;;;10.29;100.00
24788;BME280;12883;52.662;5.196;2023-12-20T11:46:08;100895.00;;;10.30;100.00
24788;BME280;12883;52.662;5.196;2023-12-20T11:48:38;100898.88;;;10.28;100.00
24788;BME280;12883;52.662;5.196;2023-12-20T11:51:13;100904.59;;;10.31;100.00
24788;BME280;12883;52.662;5.196;2023-12-20T11:53:40;100885.00;;;10.26;100.00
24788;BME280;12883;52.662;5.196;2023-12-20T11:56:06;100901.94;;;10.31;100.00
24788;BME280;12883;52.662;5.196;2023-12-20T11:58:32;100879.41;;;10.14;100.00
24788;BME280;12883;52.662;5.196;2023-12-20T12:00:58;100893.22;;;10.37;100.00
24788;BME280;12883;52.662;5.196;2023-12-20T12:03:23;100889.09;;;10.35;100.00
24788;BME280;12883;52.662;5.196;2023-12-20T12:05:49;100899.34;;;10.38;100.00
24788;BME280;12883;52.662;5.196;2023-12-20T12:08:15;100883.03;;;10.41;100.00
24788;BME280;12883;52.662;5.196;2023-12-20T12:10:41;100907.72;;;10.41;100.00
24788;BME280;12883;52.662;5.196;2023-12-20T12:13:06;100895.28;;;10.42;100.00
24788;BME280;12883;52.662;5.196;2023-12-20T12:15:32;100890.19;;;10.47;100.00
24788;BME280;12883;52.662;5.196;2023-12-20T12:17:57;100875.69;;;10.43;100.00
24788;BME280;12883;52.662;5.196;2023-12-20T12:20:24;100879.59;;;10.47;100.00
24788;BME280;12883;52.662;5.196;2023-12-20T12:23:05;100878.56;;;10.48;100.00
24788;BME280;12883;52.662;5.196;2023-12-20T12:25:34;100883.88;;;10.48;100.00
24788;BME280;12883;52.662;5.196;2023-12-20T12:28:00;100849.91;;;10.24;100.00
24788;BME280;12883;52.662;5.196;2023-12-20T12:30:26;100873.25;;;10.48;100.00
24788;BME280;12883;52.662;5.196;2023-12-20T12:32:52;100850.34;;;10.34;100.00
24788;BME280;12883;52.662;5.196;2023-12-20T12:35:18;100844.31;;;10.53;100.00
24788;BME280;12883;52.662;5.196;2023-12-20T12:37:44;100841.44;;;10.48;100.00
24788;BME280;12883;52.662;5.196;2023-12-20T12:40:10;100847.34;;;10.50;100.00
24788;BME280;12883;52.662;5.196;2023-12-20T12:42:37;100822.97;;;10.27;100.00